Latest Weather Observations for Esperance Airport

IDW60801

Issued at 9:33 pm WST Thursday 22 June 2017 (issued every 30 minutes, with the page automatically refreshed every 10 minutes)

About weather observations | Map of weather stations | Latest weather observations for WA | Other Formats
Station Details ID: 009542 Name: ESPERANCE AERO Lat: -33.68 Lon: 121.83 Height: 142.0 m
Data from the previous 72 hours. | See also: Recent months at Esperance Airport
Date/Time
WST
Temp
°C
App
Temp
°C
Dew
Point
°C
Rel
Hum
%
Delta-T
°C
Wind Press
QNH
hPa
Press
MSL
hPa
Rain since
9am
mm
Dir  Spd
km/h
Gust
km/h
Spd
kts
Gust
kts
22/09:30pm 12.0 10.1 10.4 90 0.8 ENE 11 15 6 8 1018.2 1018.2 0.0
22/09:00pm 12.2 10.3 10.4 89 0.9 ENE 11 13 6 7 1018.2 1018.2 0.0
22/08:30pm 12.4 10.5 10.6 89 0.9 ENE 11 15 6 8 1018.0 1018.0 0.0
22/08:00pm 12.7 10.9 10.8 88 1.0 ENE 11 15 6 8 1017.9 1017.9 0.0
22/07:30pm 12.8 11.3 10.7 87 1.1 E 9 13 5 7 1017.7 1017.7 0.0
22/07:00pm 12.7 11.2 10.6 87 1.1 ESE 9 11 5 6 1017.3 1017.3 0.0
22/06:30pm 12.8 11.3 10.5 86 1.2 SE 9 11 5 6 1016.8 1016.7 0.0
22/06:00pm 13.4 11.9 10.6 83 1.5 S 9 11 5 6 1016.6 1016.5 0.0
22/05:30pm 14.1 12.8 11.1 82 1.6 SSW 9 9 5 5 1016.2 1016.2 0.0
22/05:00pm 14.1 12.9 10.3 78 2.0 SW 7 9 4 5 1015.8 1015.8 0.0
22/04:30pm 15.5 13.9 10.3 71 2.8 WNW 9 11 5 6 1015.5 1015.5 0.0
22/04:00pm 18.0 17.0 10.9 63 3.9 NW 7 13 4 7 1015.2 1015.2 0.0
22/03:30pm 16.5 15.6 10.8 69 3.1 N 6 13 3 7 1015.0 1015.0 0.0
22/03:00pm 17.1 14.9 10.9 67 3.3 N 13 17 7 9 1014.8 1014.8 0.0
22/02:30pm 17.4 15.1 10.5 64 3.7 N 13 19 7 10 1014.7 1014.7 0.0
22/02:00pm 18.4 16.5 11.7 65 3.7 NNE 13 19 7 10 1014.7 1014.7 0.0
22/01:30pm 17.2 15.1 11.0 67 3.4 NNE 13 19 7 10 1014.7 1014.7 0.0
22/01:00pm 17.4 15.5 11.9 70 3.0 ENE 13 19 7 10 1014.8 1014.8 0.0
22/12:30pm 16.7 14.2 11.0 69 3.1 ENE 15 22 8 12 1014.8 1014.8 0.0
22/12:00pm 16.0 14.2 12.2 78 2.1 E 13 20 7 11 1015.2 1015.2 0.0
22/11:30am 14.5 11.7 11.5 82 1.6 ESE 17 24 9 13 1015.6 1015.6 0.0
22/11:00am 14.4 11.1 11.7 84 1.5 ESE 20 26 11 14 1015.8 1015.8 0.0
22/10:30am 13.8 11.1 11.8 88 1.1 SE 17 20 9 11 1016.2 1016.2 0.0
22/10:00am 12.8 9.6 11.4 91 0.7 SSE 19 24 10 13 1016.6 1016.5 0.0
22/09:30am 11.8 7.1 10.7 93 0.6 SE 26 37 14 20 1016.7 1016.6 0.0
22/09:17am 11.0 7.8 9.9 93 0.6 SSE 17 28 9 15 1017.2 1017.2 0.0
22/09:00am 10.5 9.3 9.4 93 0.6 WSW 6 9 3 5 1018.4 1018.4 11.0
22/08:55am 10.4 8.9 9.3 93 0.6 W 7 15 4 8 1018.4 1018.4 10.6
22/08:47am 10.3 7.3 9.2 93 0.6 W 15 19 8 10 1018.7 1018.7 10.6
22/08:30am 10.0 6.1 8.8 92 0.6 WNW 19 24 10 13 1018.6 1018.6 10.2
22/08:00am 9.9 7.9 8.5 91 0.7 WNW 9 13 5 7 1018.2 1018.2 7.6
22/07:56am 10.0 8.0 8.6 91 0.7 WNW 9 13 5 7 1018.1 1018.1 7.4
22/07:47am 10.0 8.0 8.6 91 0.7 W 9 13 5 7 1018.0 1018.0 6.8
22/07:30am 10.0 7.6 8.6 91 0.7 SSW 11 15 6 8 1017.6 1017.6 6.2
22/07:09am 9.9 7.0 8.3 90 0.8 WNW 13 22 7 12 1017.9 1017.9 4.2
22/07:06am 9.9 6.7 8.3 90 0.8 WNW 15 22 8 12 1017.8 1017.8 4.0
22/07:00am 10.0 6.8 8.3 89 0.8 NW 15 22 8 12 1017.7 1017.7 3.8
22/06:35am 10.2 6.9 8.1 87 1.0 NW 15 20 8 11 1017.4 1017.4 1.6
22/06:30am 10.2 6.9 8.1 87 1.0 NNW 15 17 8 9 1017.3 1017.3 1.4
22/06:00am 10.8 8.6 7.7 81 1.5 WNW 9 15 5 8 1016.6 1016.5 0.4
22/05:30am 10.9 7.7 6.8 76 2.0 NNW 13 20 7 11 1016.1 1016.1 0.4
22/05:00am 11.6 9.6 6.1 69 2.6 NNW 6 17 3 9 1014.9 1014.9 0.2
22/04:30am 12.0 9.2 5.2 63 3.2 E 9 19 5 10 1015.1 1015.1 0.2
22/04:00am 13.2 9.3 3.6 52 4.3 ENE 13 19 7 10 1014.4 1014.4 0.2
22/03:30am 12.4 8.6 4.1 57 3.8 NE 13 17 7 9 1014.8 1014.8 0.2
22/03:00am 12.9 9.1 3.8 54 4.1 ENE 13 17 7 9 1014.9 1014.9 0.2
22/02:30am 12.8 9.3 3.7 54 4.1 NE 11 15 6 8 1015.3 1015.3 0.2
22/02:00am 12.6 8.8 4.1 56 3.9 NNW 13 20 7 11 1015.8 1015.8 0.2
22/01:30am 13.0 8.9 4.2 55 4.0 NNE 15 20 8 11 1015.4 1015.4 0.2
22/01:00am 13.2 8.4 4.4 55 4.1 NE 19 26 10 14 1015.2 1015.2 0.2
22/12:30am 13.3 8.9 4.5 55 4.1 NE 17 24 9 13 1015.3 1015.3 0.2
22/12:00am 13.7 9.2 4.3 53 4.3 NE 17 24 9 13 1015.3 1015.3 0.2
 
Date/Time
WST
Temp
°C
App
Temp
°C
Dew
Point
°C
Rel
Hum
%
Delta-T
°C
Wind Press
QNH
hPa
Press
MSL
hPa
Rain since
9am
mm
Dir  Spd
km/h
Gust
km/h
Spd
kts
Gust
kts
21/11:30pm 13.7 9.6 4.3 53 4.3 NE 15 22 8 12 1015.5 1015.5 0.2
21/11:00pm 13.8 9.3 4.4 53 4.3 NE 17 24 9 13 1015.8 1015.8 0.2
21/10:30pm 14.2 9.3 4.2 51 4.6 NE 19 26 10 14 1015.7 1015.7 0.2
21/10:00pm 13.8 9.3 4.4 53 4.3 NE 17 24 9 13 1015.9 1015.9 0.2
21/09:30pm 14.3 9.2 4.0 50 4.7 NE 20 32 11 17 1016.2 1016.2 0.2
21/09:00pm 14.4 9.8 3.5 48 5.0 NE 17 24 9 13 1016.3 1016.3 0.2
21/08:30pm 14.5 10.2 3.3 47 5.1 ENE 15 24 8 13 1016.6 1016.5 0.2
21/08:00pm 16.2 11.5 3.3 42 5.9 NE 17 22 9 12 1016.2 1016.2 0.2
21/07:30pm 16.3 12.4 3.4 42 6.0 NE 13 19 7 10 1016.2 1016.2 0.2
21/07:00pm 16.9 13.5 3.9 42 6.1 NE 11 19 6 10 1016.1 1016.1 0.2
21/06:30pm 16.3 12.8 3.7 43 5.9 NE 11 15 6 8 1016.1 1016.1 0.2
21/06:00pm 16.4 13.3 3.5 42 6.0 ENE 9 15 5 8 1015.9 1015.9 0.2
21/05:30pm 17.4 14.5 2.6 37 6.8 NE 7 11 4 6 1016.0 1016.0 0.2
21/05:00pm 18.0 14.7 2.7 36 7.1 NE 9 11 5 6 1016.0 1016.0 0.2
21/04:30pm 19.5 15.9 2.8 33 7.8 NNE 11 13 6 7 1015.9 1015.9 0.2
21/04:00pm 21.4 17.4 2.6 29 8.9 NNE 13 17 7 9 1015.9 1015.9 0.2
21/03:30pm 22.2 18.0 1.8 26 9.6 NNE 13 20 7 11 1016.1 1016.1 0.2
21/03:00pm 23.0 18.5 1.9 25 10.0 N 15 20 8 11 1016.2 1016.2 0.2
21/02:30pm 23.3 18.8 2.2 25 10.1 NNE 15 20 8 11 1016.3 1016.3 0.2
21/02:00pm 23.3 18.1 2.2 25 10.0 N 19 30 10 16 1016.5 1016.4 0.2
21/01:30pm 22.8 18.3 4.3 30 9.1 NE 17 24 9 13 1016.8 1016.7 0.2
21/01:00pm 23.1 18.3 4.6 30 9.2 NNE 19 28 10 15 1017.1 1017.1 0.2
21/12:30pm 22.1 16.6 4.2 31 8.8 N 22 28 12 15 1017.7 1017.7 0.0
21/12:00pm 21.1 16.2 5.1 35 7.9 NNE 20 26 11 14 1018.4 1018.4 0.0
21/11:30am 20.4 15.4 6.4 40 7.1 N 22 30 12 16 1019.0 1019.0 0.0
21/11:00am 19.3 14.4 7.1 45 6.2 N 22 30 12 16 1019.7 1019.7 0.0
21/10:30am 17.9 12.5 6.4 47 5.7 N 24 32 13 17 1020.1 1020.1 0.0
21/10:00am 16.3 11.5 7.3 55 4.5 NNE 22 26 12 14 1020.4 1020.4 0.0
21/09:30am 15.0 10.6 7.5 61 3.7 NNE 20 26 11 14 1020.8 1020.8 0.0
21/09:00am 13.6 9.2 7.2 65 3.1 NNE 20 28 11 15 1020.7 1020.7 0.0
21/08:30am 12.7 8.1 6.7 67 2.9 NNE 20 28 11 15 1020.6 1020.6 0.0
21/08:00am 11.2 6.6 6.5 73 2.2 NNE 20 28 11 15 1020.5 1020.5 0.0
21/07:30am 9.8 5.2 6.3 79 1.6 NNE 20 28 11 15 1020.5 1020.5 0.0
21/07:00am 9.8 5.2 6.5 80 1.5 NNE 20 28 11 15 1020.4 1020.4 0.0
21/06:30am 9.5 5.0 6.8 83 1.3 NNE 20 28 11 15 1020.6 1020.6 0.0
21/06:00am 9.7 5.4 7.1 84 1.2 NNE 19 26 10 14 1020.3 1020.3 0.0
21/05:30am 9.9 6.1 7.7 86 1.1 NNE 17 24 9 13 1020.3 1020.3 0.0
21/05:00am 9.8 5.7 7.9 88 0.9 NNE 19 28 10 15 1020.2 1020.2 0.0
21/04:30am 10.2 6.2 8.3 88 0.9 NE 19 28 10 15 1020.4 1020.4 0.0
21/04:00am 10.4 6.3 8.5 88 0.9 NNE 20 28 11 15 1020.5 1020.5 0.0
21/03:30am 10.1 6.0 8.0 87 1.0 NNE 19 26 10 14 1020.7 1020.7 0.0
21/03:00am 10.8 6.9 8.7 87 1.0 NNE 19 24 10 13 1020.9 1020.9 0.0
21/02:30am 10.9 7.5 9.0 88 1.0 NE 17 24 9 13 1021.0 1021.0 0.0
21/02:00am 10.9 7.5 9.3 90 0.8 NE 17 20 9 11 1021.3 1021.3 0.0
21/01:30am 11.2 7.9 9.6 90 0.8 NE 17 22 9 12 1021.5 1021.5 0.0
21/01:00am 11.3 8.4 9.7 90 0.8 NE 15 20 8 11 1021.5 1021.5 0.0
21/12:30am 11.3 8.5 9.9 91 0.7 NE 15 26 8 14 1021.7 1021.7 0.0
21/12:00am 11.4 8.2 10.0 91 0.7 ENE 17 24 9 13 1022.0 1022.0 0.0
 
Date/Time
WST
Temp
°C
App
Temp
°C
Dew
Point
°C
Rel
Hum
%
Delta-T
°C
Wind Press
QNH
hPa
Press
MSL
hPa
Rain since
9am
mm
Dir  Spd
km/h
Gust
km/h
Spd
kts
Gust
kts
20/11:30pm 11.8 9.1 10.5 92 0.7 NE 15 28 8 15 1022.3 1022.3 0.0
20/11:00pm 11.7 9.1 10.6 93 0.6 ENE 15 22 8 12 1022.4 1022.4 0.0
20/10:30pm 12.1 9.6 11.0 93 0.6 ENE 15 24 8 13 1022.4 1022.4 0.0
20/10:00pm 12.7 9.6 11.6 93 0.6 ENE 19 24 10 13 1022.4 1022.4 0.0
20/09:56pm 12.7 9.4 11.6 93 0.6 ENE 20 26 11 14 1022.4 1022.4 0.0
20/09:30pm 13.2 10.1 12.1 93 0.6 ENE 20 30 11 16 1022.5 1022.5 0.0
20/09:00pm 13.2 10.2 11.9 92 0.7 ENE 19 28 10 15 1022.5 1022.5 0.0
20/08:30pm 13.4 10.4 12.0 91 0.8 ENE 19 26 10 14 1022.6 1022.6 0.0
20/08:26pm 13.4 10.4 12.0 91 0.8 ENE 19 26 10 14 1022.5 1022.5 0.0
20/08:00pm 13.6 10.4 12.0 90 0.9 E 20 28 11 15 1022.4 1022.4 0.0
20/07:30pm 13.7 11.1 11.9 89 1.0 E 17 24 9 13 1022.5 1022.5 0.0
20/07:00pm 14.1 11.2 12.3 89 1.0 E 19 28 10 15 1022.5 1022.5 0.0
20/06:30pm 14.4 11.5 12.4 88 1.1 E 19 24 10 13 1022.3 1022.3 0.0
20/06:00pm 14.7 11.8 12.4 86 1.3 E 19 26 10 14 1022.1 1022.1 0.0
20/05:30pm 15.1 12.1 12.4 84 1.5 ESE 20 28 11 15 1021.7 1021.7 0.0
20/05:00pm 15.6 13.1 12.2 80 1.9 ESE 17 20 9 11 1021.5 1021.5 0.0
20/04:30pm 16.7 13.5 12.0 74 2.6 ESE 20 30 11 16 1021.1 1021.1 0.0
20/04:00pm 17.7 13.1 12.2 70 3.0 ESE 28 33 15 18 1020.9 1020.9 0.0
20/03:30pm 18.7 14.2 12.7 68 3.4 ESE 28 35 15 19 1020.7 1020.7 0.0
20/03:00pm 19.3 14.9 11.8 62 4.2 ESE 26 35 14 19 1020.5 1020.5 0.0
20/02:30pm 20.4 16.3 10.2 52 5.5 ESE 22 32 12 17 1020.5 1020.5 0.0
20/02:00pm 21.8 18.4 5.7 35 8.1 E 13 19 7 10 1020.7 1020.7 0.0
20/01:30pm 21.3 18.1 5.2 35 8.0 ENE 11 19 6 10 1020.7 1020.7 0.0
20/01:00pm 20.7 17.5 7.0 41 7.0 ENE 13 19 7 10 1021.0 1021.0 0.0
20/12:30pm 20.4 17.3 7.4 43 6.7 E 13 17 7 9 1021.3 1021.3 0.0
20/12:00pm 19.8 16.1 6.5 42 6.7 E 15 20 8 11 1021.8 1021.8 0.0
20/11:30am 19.5 16.6 6.3 42 6.6 ENE 11 19 6 10 1022.2 1022.2 0.0
20/11:00am 18.6 16.1 6.4 45 6.1 NNE 9 15 5 8 1022.6 1022.6 0.0
20/10:30am 17.7 15.2 6.6 48 5.5 NNE 9 13 5 7 1023.0 1023.1 0.0
20/10:00am 16.7 14.5 6.2 50 5.1 NE 7 13 4 7 1023.2 1023.3 0.0
20/09:30am 15.3 13.0 5.5 52 4.7 NNE 7 9 4 5 1023.2 1023.3 0.0
20/09:00am 12.8 11.3 5.2 60 3.5 N 2 6 1 3 1023.4 1023.5 0.0
20/08:30am 11.6 8.0 4.8 63 3.1 N 13 17 7 9 1023.1 1023.2 0.0
20/08:00am 9.8 6.9 4.8 71 2.2 N 9 11 5 6 1022.9 1023.0 0.0
20/07:30am 6.9 3.4 3.5 79 1.5 N 11 13 6 7 1022.7 1022.7 0.0
20/07:00am 7.1 4.1 2.2 71 2.0 N 7 9 4 5 1022.4 1022.4 0.0
20/06:30am 9.7 6.9 3.0 63 2.9 NNE 7 11 4 6 1022.0 1022.0 0.0
20/06:00am 11.6 7.8 3.9 59 3.4 NNE 13 17 7 9 1021.6 1021.6 0.0
20/05:30am 11.5 7.7 3.8 59 3.5 NNE 13 17 7 9 1021.4 1021.4 0.0
20/05:00am 10.6 6.4 3.6 62 3.1 NNE 15 17 8 9 1021.2 1021.2 0.0
20/04:30am 10.8 6.3 4.3 64 2.9 NNE 17 19 9 10 1021.4 1021.4 0.0
20/04:00am 9.9 5.8 4.1 67 2.6 NNE 15 17 8 9 1021.3 1021.3 0.0
20/03:30am 10.8 6.8 4.7 66 2.8 NNE 15 19 8 10 1021.2 1021.2 0.0
20/03:00am 9.9 6.6 4.3 68 2.5 NE 11 11 6 6 1021.4 1021.4 0.0
20/02:30am 14.3 11.2 5.4 55 4.2 E 11 13 6 7 1021.3 1021.3 0.0
20/02:00am 14.1 11.2 4.9 54 4.3 E 9 11 5 6 1021.5 1021.5 0.0
20/01:30am 14.6 11.9 5.7 55 4.3 E 9 11 5 6 1021.5 1021.5 0.0
20/01:00am 13.6 11.2 5.3 57 3.9 ENE 7 9 4 5 1021.6 1021.6 0.0
20/12:30am 12.8 10.0 5.2 60 3.6 NE 9 13 5 7 1021.5 1021.5 0.0
20/12:00am 11.7 8.5 5.3 65 3.0 NNE 11 15 6 8 1021.5 1021.5 0.0
 
Date/Time
WST
Temp
°C
App
Temp
°C
Dew
Point
°C
Rel
Hum
%
Delta-T
°C
Wind Press
QNH
hPa
Press
MSL
hPa
Rain since
9am
mm
Dir  Spd
km/h
Gust
km/h
Spd
kts
Gust
kts
19/11:30pm 11.8 8.3 5.4 65 3.0 NNE 13 15 7 8 1021.6 1021.6 0.0
19/11:00pm 12.4 9.3 5.6 63 3.2 NE 11 13 6 7 1021.9 1021.9 0.0
19/10:30pm 12.1 9.4 5.7 65 3.0 NE 9 11 5 6 1021.9 1021.9 0.0
19/10:00pm 13.5 10.5 6.1 61 3.5 ENE 11 13 6 7 1022.1 1022.1 0.0

Other Formats:

Comma delimited format used in spreadsheet applications
http://www.bom.gov.au/fwo/IDW60801/IDW60801.95638.axf

JavaScript Object Notation format (JSON) in row-major order
http://www.bom.gov.au/fwo/IDW60801/IDW60801.95638.json